createdAt,value
2023-05-04T00:00:19.240Z,37.97
2023-05-04T00:01:19.246Z,37.90
2023-05-04T00:02:19.372Z,37.83
2023-05-04T00:03:19.383Z,37.79
2023-05-04T00:04:19.410Z,37.77
2023-05-04T00:05:19.385Z,37.77
2023-05-04T00:06:19.396Z,37.76
2023-05-04T00:07:19.437Z,37.74
2023-05-04T00:08:19.475Z,37.73
2023-05-04T00:09:19.511Z,37.69
2023-05-04T00:10:19.566Z,37.69
2023-05-04T00:11:19.601Z,37.71
2023-05-04T00:12:19.652Z,37.68
2023-05-04T00:13:19.724Z,37.69
2023-05-04T00:14:19.737Z,37.67
2023-05-04T00:15:19.777Z,37.65
2023-05-04T00:16:19.834Z,37.64
2023-05-04T00:17:19.908Z,37.67
2023-05-04T00:18:19.971Z,37.63
2023-05-04T00:19:19.961Z,37.64
2023-05-04T00:20:20.016Z,37.65
2023-05-04T00:21:20.021Z,37.64
2023-05-04T00:22:20.065Z,37.64
2023-05-04T00:23:20.106Z,37.63
2023-05-04T00:24:20.142Z,37.62
2023-05-04T00:25:20.186Z,37.64
2023-05-04T00:26:20.652Z,37.64
2023-05-04T00:27:20.281Z,37.61
2023-05-04T00:28:20.323Z,37.60
2023-05-04T00:29:20.395Z,37.62
2023-05-04T00:30:20.405Z,37.60
2023-05-04T00:31:20.489Z,37.61
2023-05-04T00:32:20.498Z,37.59
2023-05-04T00:33:20.545Z,37.59
2023-05-04T00:34:20.584Z,37.59
2023-05-04T00:35:20.658Z,37.59
2023-05-04T00:36:20.680Z,37.56
2023-05-04T00:37:20.773Z,37.60
2023-05-04T00:38:20.783Z,37.60
2023-05-04T00:39:20.829Z,37.58
2023-05-04T00:40:20.887Z,37.59
2023-05-04T00:41:20.941Z,37.55
2023-05-04T00:42:20.993Z,37.57
2023-05-04T00:43:21.041Z,37.57
2023-05-04T00:44:21.129Z,37.57
2023-05-04T00:45:21.161Z,37.58
2023-05-04T00:46:21.196Z,37.57
2023-05-04T00:47:21.290Z,37.56
2023-05-04T00:48:21.285Z,37.53
2023-05-04T00:49:21.482Z,37.54
2023-05-04T00:50:21.386Z,37.55
2023-05-04T00:51:21.424Z,37.54
2023-05-04T00:52:21.471Z,37.55
2023-05-04T00:53:21.517Z,37.57
2023-05-04T00:54:21.557Z,37.53
2023-05-04T00:55:21.609Z,37.52
2023-05-04T00:56:21.660Z,37.53
2023-05-04T00:57:21.721Z,37.51
2023-05-04T00:58:21.766Z,37.52
2023-05-04T00:59:21.801Z,37.52
2023-05-04T01:00:21.856Z,37.50
2023-05-04T01:01:22.008Z,37.52
2023-05-04T01:02:21.977Z,37.50
2023-05-04T01:03:22.159Z,37.51
2023-05-04T01:04:22.040Z,37.50
2023-05-04T01:05:22.093Z,37.50
2023-05-04T01:06:22.140Z,37.47
2023-05-04T01:07:22.180Z,37.48
2023-05-04T01:08:22.582Z,37.49
2023-05-04T01:09:22.627Z,37.48
2023-05-04T01:10:22.630Z,37.46
2023-05-04T01:11:22.624Z,37.49
2023-05-04T01:12:22.630Z,37.46
2023-05-04T01:13:22.642Z,37.46
2023-05-04T01:14:22.641Z,37.48
2023-05-04T01:15:22.632Z,37.46
2023-05-04T01:16:22.694Z,37.46
2023-05-04T01:17:22.688Z,37.43
2023-05-04T01:18:22.675Z,37.45
2023-05-04T01:19:22.719Z,37.45
2023-05-04T01:20:22.787Z,37.43
2023-05-04T01:21:22.854Z,37.42
2023-05-04T01:22:22.871Z,37.42
2023-05-04T01:23:22.900Z,37.41
2023-05-04T01:24:22.949Z,37.44
2023-05-04T01:25:22.997Z,37.44
2023-05-04T01:26:23.053Z,37.43
2023-05-04T01:27:23.103Z,37.42
2023-05-04T01:28:23.158Z,37.42
2023-05-04T01:29:23.204Z,37.41
2023-05-04T01:30:23.639Z,37.42
2023-05-04T01:31:23.725Z,37.40
2023-05-04T01:32:23.727Z,37.41
2023-05-04T01:33:23.662Z,37.40
2023-05-04T01:34:23.644Z,37.40
2023-05-04T01:35:23.642Z,37.39
2023-05-04T01:36:23.651Z,37.36
2023-05-04T01:37:23.649Z,37.39
2023-05-04T01:38:23.681Z,37.37
2023-05-04T01:39:23.716Z,37.37
2023-05-04T01:40:23.779Z,37.38
2023-05-04T01:41:23.823Z,37.37
2023-05-04T01:42:23.890Z,37.38
2023-05-04T01:43:23.957Z,37.37
2023-05-04T01:44:23.968Z,37.37
2023-05-04T01:45:24.013Z,37.36
2023-05-04T01:46:24.095Z,37.37
2023-05-04T01:47:24.133Z,37.38
2023-05-04T01:48:24.198Z,37.37
2023-05-04T01:49:24.255Z,37.32
2023-05-04T01:50:24.265Z,37.35
2023-05-04T01:51:24.326Z,37.36
2023-05-04T01:52:24.389Z,37.33
2023-05-04T01:53:24.439Z,37.32
2023-05-04T01:54:24.495Z,37.34
2023-05-04T01:55:24.532Z,37.34
2023-05-04T01:56:24.592Z,37.33
2023-05-04T01:57:24.640Z,37.36
2023-05-04T01:58:24.701Z,37.35
2023-05-04T01:59:24.756Z,37.31
2023-05-04T02:00:24.858Z,37.30
2023-05-04T02:01:24.930Z,37.31
2023-05-04T02:02:24.944Z,37.31
2023-05-04T02:03:25.071Z,37.30
2023-05-04T02:04:25.057Z,37.28
2023-05-04T02:05:25.215Z,37.31
2023-05-04T02:06:25.215Z,37.30
2023-05-04T02:07:25.244Z,37.28
2023-05-04T02:08:25.334Z,37.29
2023-05-04T02:09:25.370Z,37.28
2023-05-04T02:10:25.437Z,37.28
2023-05-04T02:11:25.487Z,37.27
2023-05-04T02:12:25.568Z,37.28
2023-05-04T02:13:25.614Z,37.27
2023-05-04T02:14:25.670Z,37.26
2023-05-04T02:15:25.734Z,37.26
2023-05-04T02:16:25.817Z,37.27
2023-05-04T02:17:26.761Z,37.27
2023-05-04T02:18:25.894Z,37.28
2023-05-04T02:19:25.961Z,37.26
2023-05-04T02:20:26.036Z,37.23
2023-05-04T02:21:26.113Z,37.24
2023-05-04T02:22:26.171Z,37.24
2023-05-04T02:23:26.220Z,37.23
2023-05-04T02:24:26.285Z,37.23
2023-05-04T02:25:26.358Z,37.22
2023-05-04T02:26:26.416Z,37.23
2023-05-04T02:27:26.482Z,37.24
2023-05-04T02:28:26.537Z,37.21
2023-05-04T02:29:26.611Z,37.22
2023-05-04T02:30:26.680Z,37.22
2023-05-04T02:31:26.734Z,37.23
2023-05-04T02:32:26.844Z,37.20
2023-05-04T02:33:26.866Z,37.20
2023-05-04T02:34:26.910Z,37.18
2023-05-04T02:35:26.970Z,37.18
2023-05-04T02:36:27.031Z,37.19
2023-05-04T02:37:27.148Z,37.21
2023-05-04T02:38:27.147Z,37.17
2023-05-04T02:39:27.201Z,37.16
2023-05-04T02:40:27.259Z,37.17
2023-05-04T02:41:27.324Z,37.19
2023-05-04T02:42:27.396Z,37.18
2023-05-04T02:43:27.455Z,37.14
2023-05-04T02:44:27.523Z,37.17
2023-05-04T02:45:27.625Z,37.16
2023-05-04T02:46:27.653Z,37.14
2023-05-04T02:47:27.724Z,37.13
2023-05-04T02:48:27.781Z,37.15
2023-05-04T02:49:27.841Z,37.15
2023-05-04T02:50:27.911Z,37.13
2023-05-04T02:51:27.965Z,37.12
2023-05-04T02:52:28.045Z,37.15
2023-05-04T02:53:28.126Z,37.12
2023-05-04T02:54:28.226Z,37.12
2023-05-04T02:55:28.221Z,37.12
2023-05-04T02:56:28.647Z,37.12
2023-05-04T02:57:28.690Z,37.15
2023-05-04T02:58:28.699Z,37.13
2023-05-04T02:59:28.719Z,37.13
2023-05-04T03:00:28.701Z,37.12
2023-05-04T03:01:28.696Z,37.09
2023-05-04T03:02:28.760Z,37.11
2023-05-04T03:03:28.759Z,37.10
2023-05-04T03:04:28.871Z,37.09
2023-05-04T03:05:28.899Z,37.12
2023-05-04T03:06:28.934Z,37.10
2023-05-04T03:07:29.014Z,37.10
2023-05-04T03:08:29.072Z,37.08
2023-05-04T03:09:29.161Z,37.08
2023-05-04T03:10:29.206Z,37.07
2023-05-04T03:11:29.269Z,37.09
2023-05-04T03:12:29.768Z,37.05
2023-05-04T03:13:29.703Z,37.06
2023-05-04T03:14:29.699Z,37.07
2023-05-04T03:15:29.700Z,37.07
2023-05-04T03:16:29.724Z,37.05
2023-05-04T03:17:29.712Z,37.06
2023-05-04T03:18:29.751Z,37.04
2023-05-04T03:19:29.815Z,37.06
2023-05-04T03:20:29.875Z,37.05
2023-05-04T03:21:29.941Z,37.02
2023-05-04T03:22:30.034Z,37.02
2023-05-04T03:23:31.043Z,37.04
2023-05-04T03:24:30.187Z,37.02
2023-05-04T03:25:30.273Z,37.05
2023-05-04T03:26:30.303Z,37.03
2023-05-04T03:27:30.368Z,37.02
2023-05-04T03:28:30.443Z,37.03
2023-05-04T03:29:30.508Z,37.04
2023-05-04T03:30:30.580Z,37.02
2023-05-04T03:31:30.633Z,37.02
2023-05-04T03:32:30.726Z,37.01
2023-05-04T03:33:30.786Z,37.02
2023-05-04T03:34:30.955Z,37.03
2023-05-04T03:35:30.969Z,37.00
2023-05-04T03:36:30.983Z,37.02
2023-05-04T03:37:31.049Z,37.01
2023-05-04T03:38:31.122Z,36.99
2023-05-04T03:39:31.190Z,37.00
2023-05-04T03:40:31.266Z,37.00
2023-05-04T03:41:31.373Z,36.99
2023-05-04T03:42:31.395Z,37.01
2023-05-04T03:43:31.473Z,37.00
2023-05-04T03:44:31.533Z,37.00
2023-05-04T03:45:31.612Z,37.01
2023-05-04T03:46:31.786Z,37.01
2023-05-04T03:47:31.787Z,37.01
2023-05-04T03:48:31.833Z,37.00
2023-05-04T03:49:31.894Z,36.98
2023-05-04T03:50:31.968Z,36.99
2023-05-04T03:51:32.026Z,37.01
2023-05-04T03:52:32.100Z,36.99
2023-05-04T03:53:32.166Z,36.95
2023-05-04T03:54:32.236Z,36.99
2023-05-04T03:55:32.301Z,36.97
2023-05-04T03:56:32.372Z,36.99
2023-05-04T03:57:32.478Z,36.98
2023-05-04T03:58:32.539Z,36.95
2023-05-04T03:59:32.598Z,36.98
2023-05-04T04:00:32.669Z,36.96
2023-05-04T04:01:32.743Z,36.95
2023-05-04T04:02:32.929Z,36.96
2023-05-04T04:03:33.001Z,36.97
2023-05-04T04:04:32.999Z,36.94
2023-05-04T04:05:33.042Z,36.93
2023-05-04T04:06:33.122Z,36.94
2023-05-04T04:07:33.182Z,36.93
2023-05-04T04:08:33.260Z,36.94
2023-05-04T04:09:33.353Z,36.96
2023-05-04T04:10:33.413Z,36.94
2023-05-04T04:11:33.491Z,36.95
2023-05-04T04:12:33.605Z,36.94
2023-05-04T04:13:33.665Z,36.92
2023-05-04T04:14:33.712Z,36.94
2023-05-04T04:15:33.782Z,36.92
2023-05-04T04:16:33.888Z,36.93
2023-05-04T04:17:33.982Z,36.93
2023-05-04T04:18:34.016Z,36.94
2023-05-04T04:19:34.091Z,36.94
2023-05-04T04:20:34.163Z,36.93
2023-05-04T04:21:34.244Z,36.92
2023-05-04T04:22:34.317Z,36.93
2023-05-04T04:23:34.757Z,36.92
2023-05-04T04:24:34.739Z,36.92
2023-05-04T04:25:34.751Z,36.92
2023-05-04T04:26:34.742Z,36.90
2023-05-04T04:27:34.741Z,36.91
2023-05-04T04:28:34.776Z,36.90
2023-05-04T04:29:34.890Z,36.89
2023-05-04T04:30:34.942Z,36.91
2023-05-04T04:31:35.078Z,36.92
2023-05-04T04:32:35.144Z,36.88
2023-05-04T04:33:35.173Z,36.90
2023-05-04T04:34:35.245Z,36.89
2023-05-04T04:35:35.326Z,36.88
2023-05-04T04:36:35.743Z,36.89
2023-05-04T04:37:35.757Z,36.89
2023-05-04T04:38:35.747Z,36.87
2023-05-04T04:39:35.797Z,36.88
2023-05-04T04:40:35.742Z,36.85
2023-05-04T04:41:35.787Z,36.88
2023-05-04T04:42:35.891Z,36.86
2023-05-04T04:43:35.951Z,36.87
2023-05-04T04:44:36.045Z,36.87
2023-05-04T04:45:36.141Z,36.87
2023-05-04T04:46:36.234Z,36.88
2023-05-04T04:47:36.342Z,36.88
2023-05-04T04:48:36.366Z,36.87
2023-05-04T04:49:36.431Z,36.87
2023-05-04T04:50:36.510Z,36.88
2023-05-04T04:51:36.588Z,36.87
2023-05-04T04:52:36.682Z,36.86
2023-05-04T04:53:36.755Z,36.87
2023-05-04T04:54:36.825Z,36.87
2023-05-04T04:55:36.911Z,36.84
2023-05-04T04:56:36.999Z,36.86
2023-05-04T04:57:37.099Z,36.84
2023-05-04T04:58:37.172Z,36.87
2023-05-04T04:59:37.237Z,36.84
2023-05-04T05:00:37.307Z,36.84
2023-05-04T05:01:37.458Z,36.83
2023-05-04T05:02:37.513Z,36.84
2023-05-04T05:03:37.559Z,36.84
2023-05-04T05:04:37.670Z,36.82
2023-05-04T05:05:37.720Z,36.83
2023-05-04T05:06:37.803Z,36.84
2023-05-04T05:07:37.880Z,36.83
2023-05-04T05:08:37.963Z,36.84
2023-05-04T05:09:38.048Z,36.82
2023-05-04T05:10:38.141Z,36.82
2023-05-04T05:11:38.228Z,36.83
2023-05-04T05:12:38.795Z,36.82
2023-05-04T05:13:38.366Z,36.81
2023-05-04T05:14:38.434Z,36.80
2023-05-04T05:15:38.521Z,36.83
2023-05-04T05:16:38.670Z,36.81
2023-05-04T05:17:38.820Z,36.81
2023-05-04T05:18:38.754Z,36.81
2023-05-04T05:20:37.907Z,36.84
2023-05-04T05:21:39.015Z,36.82
2023-05-04T05:22:39.074Z,36.80
2023-05-04T05:23:39.150Z,36.83
2023-05-04T05:24:39.252Z,36.89
2023-05-04T05:26:38.396Z,36.95
2023-05-04T05:27:39.758Z,37.00
2023-05-04T05:28:39.545Z,37.01
2023-05-04T05:29:39.791Z,37.03
2023-05-04T05:30:39.808Z,37.00
2023-05-04T05:31:39.796Z,36.97
2023-05-04T05:32:39.875Z,37.04
2023-05-04T05:33:39.941Z,37.15
2023-05-04T05:34:39.962Z,37.11
2023-05-04T05:35:40.040Z,37.11
2023-05-04T05:36:40.083Z,37.23
2023-05-04T05:37:40.366Z,37.18
2023-05-04T05:38:40.282Z,37.27
2023-05-04T05:39:40.306Z,37.24
2023-05-04T05:40:40.324Z,37.31
2023-05-04T05:41:40.379Z,37.45
2023-05-04T05:42:40.801Z,37.47
2023-05-04T05:43:41.299Z,37.47
2023-05-04T05:44:40.843Z,37.52
2023-05-04T05:45:40.840Z,37.61
2023-05-04T05:46:44.201Z,37.60
2023-05-04T05:47:40.859Z,37.67
2023-05-04T05:48:41.296Z,37.75
2023-05-04T05:49:40.896Z,37.78
2023-05-04T05:50:43.904Z,37.75
2023-05-04T05:51:48.114Z,37.84
2023-05-04T05:52:40.812Z,37.98
2023-05-04T05:53:40.796Z,38.00
2023-05-04T05:54:40.793Z,38.12
2023-05-04T05:55:40.768Z,38.39
2023-05-04T05:56:40.700Z,38.44
2023-05-04T05:57:40.753Z,38.26
2023-05-04T05:58:40.780Z,38.50
2023-05-04T05:59:40.754Z,38.64
2023-05-04T06:00:40.797Z,38.74
2023-05-04T06:01:43.934Z,38.77
2023-05-04T06:02:44.095Z,38.94
2023-05-04T06:03:48.927Z,39.16
2023-05-04T06:05:43.965Z,39.33
2023-05-04T06:06:40.757Z,39.54
2023-05-04T06:07:40.765Z,39.77
2023-05-04T06:08:40.731Z,39.90
2023-05-04T06:09:40.814Z,39.93
2023-05-04T06:10:40.753Z,39.97
2023-05-04T06:11:40.730Z,40.08
2023-05-04T06:12:40.891Z,40.35
2023-05-04T06:13:40.733Z,40.18
2023-05-04T06:14:41.066Z,40.12
2023-05-04T06:15:40.949Z,40.37
2023-05-04T06:16:40.813Z,40.39
2023-05-04T06:17:40.779Z,40.40
2023-05-04T06:18:40.710Z,40.45
2023-05-04T06:19:41.713Z,40.72
2023-05-04T06:20:40.687Z,40.73
2023-05-04T06:21:40.833Z,40.94
2023-05-04T06:22:40.792Z,40.94
2023-05-04T06:23:40.673Z,40.97
2023-05-04T06:24:40.652Z,41.21
2023-05-04T06:25:40.648Z,41.25
2023-05-04T06:26:40.648Z,41.33
2023-05-04T06:27:40.712Z,41.45
2023-05-04T06:28:40.640Z,41.58
2023-05-04T06:29:40.670Z,41.46
2023-05-04T06:30:40.708Z,41.46
2023-05-04T06:31:40.768Z,41.31
2023-05-04T06:32:40.844Z,41.38
2023-05-04T06:33:40.857Z,41.29
2023-05-04T06:34:40.907Z,41.38
2023-05-04T06:35:40.994Z,41.59
2023-05-04T06:36:41.032Z,41.91
2023-05-04T06:37:42.397Z,41.79
2023-05-04T06:38:44.315Z,41.95
2023-05-04T06:39:41.103Z,42.16
2023-05-04T06:40:41.284Z,42.21
2023-05-04T06:41:41.093Z,42.36
2023-05-04T06:42:41.109Z,42.12
2023-05-04T06:43:41.085Z,42.29
2023-05-04T06:44:41.061Z,42.35
2023-05-04T06:45:41.325Z,42.63
2023-05-04T06:46:41.038Z,42.84
2023-05-04T06:47:41.031Z,42.87
2023-05-04T06:48:41.045Z,41.47
2023-05-04T06:49:41.017Z,38.49
2023-05-04T06:50:41.344Z,38.57
2023-05-04T06:51:41.304Z,37.76
2023-05-04T06:52:41.106Z,37.39
2023-05-04T06:53:41.030Z,37.32
2023-05-04T06:54:41.011Z,37.19
2023-05-04T06:55:41.335Z,37.32
2023-05-04T06:56:41.298Z,37.18
2023-05-04T06:57:41.680Z,37.09
2023-05-04T06:58:40.936Z,36.88
2023-05-04T06:59:40.939Z,36.87
2023-05-04T07:00:40.963Z,36.91
2023-05-04T07:01:41.347Z,36.69
2023-05-04T07:02:40.965Z,36.49
2023-05-04T07:03:40.970Z,36.23
2023-05-04T07:04:40.914Z,36.44
2023-05-04T07:05:40.903Z,36.38
2023-05-04T07:06:40.889Z,36.42
2023-05-04T07:07:40.889Z,36.60
2023-05-04T07:08:40.876Z,37.22
2023-05-04T07:09:40.896Z,36.30
2023-05-04T07:10:40.863Z,36.27
2023-05-04T07:11:40.858Z,35.94
2023-05-04T07:12:40.899Z,35.98
2023-05-04T07:13:40.844Z,35.92
2023-05-04T07:14:40.850Z,35.87
2023-05-04T07:15:40.889Z,35.88
2023-05-04T07:16:40.888Z,35.89
2023-05-04T07:17:41.330Z,35.63
2023-05-04T07:18:40.825Z,35.83
2023-05-04T07:19:40.802Z,35.58
2023-05-04T07:20:40.791Z,35.53
2023-05-04T07:21:40.823Z,35.61
2023-05-04T07:22:40.805Z,35.60
2023-05-04T07:23:40.798Z,35.56
2023-05-04T07:24:40.775Z,35.71
2023-05-04T07:25:40.816Z,35.89
2023-05-04T07:26:40.781Z,35.80
2023-05-04T07:27:40.808Z,35.83
2023-05-04T07:28:40.773Z,35.91
2023-05-04T07:29:40.908Z,35.74
2023-05-04T07:30:40.803Z,35.65
2023-05-04T07:31:40.837Z,35.71
2023-05-04T07:32:40.799Z,35.68
2023-05-04T07:33:40.845Z,36.25
2023-05-04T07:34:45.638Z,36.00
2023-05-04T07:35:40.781Z,35.75
2023-05-04T07:36:48.220Z,35.77
2023-05-04T07:37:40.800Z,35.66
2023-05-04T07:38:40.781Z,35.49
2023-05-04T07:39:40.776Z,35.40
2023-05-04T07:40:40.731Z,35.62
2023-05-04T07:41:40.870Z,35.32
2023-05-04T07:42:40.825Z,34.93
2023-05-04T07:43:40.752Z,35.37
2023-05-04T07:44:40.805Z,35.07
2023-05-04T07:45:40.746Z,35.09
2023-05-04T07:46:40.778Z,35.20
2023-05-04T07:47:40.878Z,35.04
2023-05-04T07:48:40.812Z,35.08
2023-05-04T07:49:40.752Z,34.94
2023-05-04T07:50:40.719Z,34.90
2023-05-04T07:51:40.742Z,34.95
2023-05-04T07:52:40.725Z,35.54
2023-05-04T07:53:40.803Z,35.89
2023-05-04T07:54:40.732Z,35.67
2023-05-04T07:55:41.030Z,36.19
2023-05-04T07:56:40.752Z,36.29
2023-05-04T07:57:40.861Z,36.33
2023-05-04T07:58:40.765Z,35.35
2023-05-04T07:59:41.773Z,36.04
2023-05-04T08:00:41.900Z,36.15
2023-05-04T08:01:43.210Z,35.65
2023-05-04T08:02:40.952Z,36.09
2023-05-04T08:03:41.734Z,36.18
2023-05-04T08:04:56.355Z,36.01
2023-05-04T08:05:40.735Z,35.02
2023-05-04T08:06:40.992Z,34.93
2023-05-04T08:07:41.833Z,34.76
2023-05-04T08:08:40.743Z,34.56
2023-05-04T08:09:41.691Z,34.46
2023-05-04T08:10:40.704Z,34.36
2023-05-04T08:11:40.716Z,34.89
2023-05-04T08:12:40.718Z,34.67
2023-05-04T08:13:41.863Z,34.66
2023-05-04T08:14:40.776Z,35.29
2023-05-04T08:15:41.794Z,35.19
2023-05-04T08:16:41.345Z,35.00
2023-05-04T08:17:40.982Z,34.88
2023-05-04T08:18:40.982Z,34.85
2023-05-04T08:19:41.006Z,34.14
2023-05-04T08:20:41.082Z,34.07
2023-05-04T08:21:41.376Z,34.63
2023-05-04T08:22:41.194Z,34.13
2023-05-04T08:23:41.232Z,34.40
2023-05-04T08:24:56.841Z,34.66
2023-05-04T08:25:41.261Z,34.41
2023-05-04T08:26:42.561Z,34.74
2023-05-04T08:27:42.232Z,35.12
2023-05-04T08:28:41.448Z,34.63
2023-05-04T08:29:41.276Z,34.08
2023-05-04T08:30:41.207Z,34.79
2023-05-04T08:31:41.571Z,34.52
2023-05-04T08:32:41.400Z,34.35
2023-05-04T08:33:41.291Z,34.52
2023-05-04T08:34:56.994Z,34.51
2023-05-04T08:35:41.261Z,34.65
2023-05-04T08:36:44.481Z,34.31
2023-05-04T08:37:41.397Z,34.59
2023-05-04T08:38:41.494Z,34.57
2023-05-04T08:39:42.223Z,34.60
2023-05-04T08:41:13.039Z,34.30
2023-05-04T08:41:44.492Z,34.78
2023-05-04T08:42:41.163Z,34.73
2023-05-04T08:43:41.186Z,34.30
2023-05-04T08:44:43.801Z,33.84
2023-05-04T08:45:41.363Z,33.55
2023-05-04T08:46:41.146Z,33.58
2023-05-04T08:47:41.190Z,33.48
2023-05-04T08:48:41.105Z,33.15
2023-05-04T08:49:41.333Z,33.08
2023-05-04T08:50:41.121Z,33.36
2023-05-04T08:51:41.089Z,33.18
2023-05-04T08:52:41.428Z,33.09
2023-05-04T08:53:41.597Z,32.97
2023-05-04T08:54:41.081Z,32.94
2023-05-04T08:55:41.085Z,32.99
2023-05-04T08:56:41.097Z,32.66
2023-05-04T08:57:41.334Z,32.60
2023-05-04T08:58:41.081Z,32.88
2023-05-04T08:59:41.075Z,33.15
2023-05-04T09:00:41.194Z,33.11
2023-05-04T09:01:41.338Z,33.06
2023-05-04T09:02:41.439Z,32.91
2023-05-04T09:03:41.239Z,32.92
2023-05-04T09:04:41.076Z,32.78
2023-05-04T09:05:41.060Z,33.43
2023-05-04T09:06:41.085Z,33.07
2023-05-04T09:07:41.053Z,32.81
2023-05-04T09:08:41.057Z,32.76
2023-05-04T09:09:41.079Z,32.64
2023-05-04T09:10:41.341Z,32.57
2023-05-04T09:11:41.069Z,32.43
2023-05-04T09:12:41.151Z,32.40
2023-05-04T09:13:41.121Z,32.15
2023-05-04T09:15:12.924Z,32.15
2023-05-04T09:15:41.116Z,32.23
2023-05-04T09:16:41.139Z,32.34
2023-05-04T09:17:50.930Z,32.31
2023-05-04T09:18:41.383Z,32.27
2023-05-04T09:19:41.139Z,32.01
2023-05-04T09:20:41.132Z,32.04
2023-05-04T09:21:41.138Z,32.07
2023-05-04T09:22:41.466Z,32.07
2023-05-04T09:23:42.455Z,32.01
2023-05-04T09:24:41.280Z,31.64
2023-05-04T09:25:41.156Z,31.64
2023-05-04T09:26:41.867Z,31.82
2023-05-04T09:27:41.165Z,31.84
2023-05-04T09:28:41.393Z,31.95
2023-05-04T09:29:41.203Z,32.01
2023-05-04T09:30:41.165Z,32.23
2023-05-04T09:31:41.293Z,32.45
2023-05-04T09:32:44.505Z,32.37
2023-05-04T09:33:44.390Z,32.42
2023-05-04T09:34:41.171Z,32.50
2023-05-04T09:35:41.197Z,32.69
2023-05-04T09:37:13.061Z,32.59
2023-05-04T09:37:44.390Z,32.30
2023-05-04T09:38:41.391Z,32.24
2023-05-04T09:39:44.575Z,32.18
2023-05-04T09:40:41.445Z,32.32
2023-05-04T09:41:41.244Z,32.69
2023-05-04T09:42:41.249Z,32.74
2023-05-04T09:43:41.264Z,32.88
2023-05-04T09:44:41.359Z,32.98
2023-05-04T09:45:41.308Z,32.95
2023-05-04T09:46:41.941Z,32.86
2023-05-04T09:47:41.300Z,33.13
2023-05-04T09:48:41.304Z,33.46
2023-05-04T09:49:41.270Z,33.58
2023-05-04T09:50:41.277Z,33.72
2023-05-04T09:51:41.278Z,33.69
2023-05-04T09:52:41.249Z,33.77
2023-05-04T09:53:41.384Z,33.75
2023-05-04T09:54:41.291Z,33.68
2023-05-04T09:55:41.281Z,33.61
2023-05-04T09:56:41.285Z,33.79
2023-05-04T09:57:41.319Z,33.86
2023-05-04T09:58:41.373Z,33.84
2023-05-04T09:59:41.292Z,33.82
2023-05-04T10:00:41.303Z,34.00
2023-05-04T10:01:44.713Z,33.83
2023-05-04T10:02:41.368Z,33.82
2023-05-04T10:03:41.379Z,33.61
2023-05-04T10:04:41.388Z,33.67
2023-05-04T10:05:41.357Z,33.71
2023-05-04T10:06:41.330Z,33.82
2023-05-04T10:07:41.652Z,33.96
2023-05-04T10:08:41.405Z,34.20
2023-05-04T10:09:41.363Z,34.21
2023-05-04T10:10:41.365Z,34.21
2023-05-04T10:11:41.377Z,34.34
2023-05-04T10:12:41.410Z,34.23
2023-05-04T10:13:41.876Z,34.15
2023-05-04T10:14:41.396Z,34.15
2023-05-04T10:15:41.401Z,34.02
2023-05-04T10:16:41.420Z,34.01
2023-05-04T10:17:41.447Z,34.10
2023-05-04T10:18:41.862Z,33.95
2023-05-04T10:19:41.435Z,33.84
2023-05-04T10:20:41.461Z,33.79
2023-05-04T10:21:41.430Z,33.56
2023-05-04T10:22:41.862Z,33.71
2023-05-04T10:23:41.868Z,33.82
2023-05-04T10:24:41.508Z,33.83
2023-05-04T10:25:41.529Z,34.43
2023-05-04T10:26:41.579Z,34.92
2023-05-04T10:27:41.862Z,34.71
2023-05-04T10:28:41.893Z,34.57
2023-05-04T10:29:41.667Z,34.41
2023-05-04T10:30:41.722Z,34.51
2023-05-04T10:31:41.748Z,34.93
2023-05-04T10:32:41.822Z,34.90
2023-05-04T10:33:41.754Z,35.00
2023-05-04T10:34:41.874Z,35.09
2023-05-04T10:35:41.952Z,34.79
2023-05-04T10:36:41.785Z,34.87
2023-05-04T10:37:41.870Z,34.67
2023-05-04T10:38:43.014Z,34.98
2023-05-04T10:39:49.784Z,35.04
2023-05-04T10:40:40.769Z,35.03
2023-05-04T10:41:41.768Z,34.90
2023-05-04T10:42:41.871Z,35.26
2023-05-04T10:43:41.737Z,35.05
2023-05-04T10:44:41.880Z,35.27
2023-05-04T10:45:41.776Z,35.25
2023-05-04T10:46:41.716Z,35.42
2023-05-04T10:47:41.802Z,35.51
2023-05-04T10:48:41.954Z,35.60
2023-05-04T10:49:41.869Z,35.55
2023-05-04T10:50:41.675Z,35.58
2023-05-04T10:51:49.432Z,35.49
2023-05-04T10:52:41.742Z,35.58
2023-05-04T10:53:41.696Z,35.63
2023-05-04T10:54:41.872Z,35.58
2023-05-04T10:55:41.653Z,35.42
2023-05-04T10:56:41.677Z,35.58
2023-05-04T10:57:41.689Z,35.64
2023-05-04T10:58:41.651Z,35.61
2023-05-04T10:59:41.876Z,35.53
2023-05-04T11:00:41.599Z,35.76
2023-05-04T11:01:42.002Z,35.92
2023-05-04T11:02:41.948Z,35.48
2023-05-04T11:03:41.801Z,35.87
2023-05-04T11:04:41.568Z,35.81
2023-05-04T11:05:41.532Z,35.63
2023-05-04T11:06:44.723Z,35.65
2023-05-04T11:07:41.906Z,35.76
2023-05-04T11:08:41.908Z,34.96
2023-05-04T11:09:41.480Z,34.05
2023-05-04T11:10:41.472Z,33.92
2023-05-04T11:11:41.475Z,34.40
2023-05-04T11:12:41.474Z,34.58
2023-05-04T11:13:41.885Z,34.40
2023-05-04T11:14:41.466Z,34.62
2023-05-04T11:15:41.449Z,34.67
2023-05-04T11:16:41.529Z,34.51
2023-05-04T11:17:41.589Z,34.74
2023-05-04T11:18:41.921Z,34.68
2023-05-04T11:19:42.705Z,34.67
2023-05-04T11:20:41.761Z,34.94
2023-05-04T11:21:41.823Z,35.01
2023-05-04T11:22:41.884Z,34.93
2023-05-04T11:23:41.943Z,34.93
2023-05-04T11:24:43.050Z,34.98
2023-05-04T11:25:42.258Z,35.08
2023-05-04T11:26:42.110Z,35.35
2023-05-04T11:27:42.173Z,33.92
2023-05-04T11:28:42.450Z,33.60
2023-05-04T11:29:42.275Z,33.42
2023-05-04T11:30:42.337Z,33.67
2023-05-04T11:31:42.436Z,33.94
2023-05-04T11:32:42.482Z,33.93
2023-05-04T11:33:42.520Z,33.80
2023-05-04T11:34:42.590Z,34.68
2023-05-04T11:35:42.652Z,34.09
2023-05-04T11:36:42.735Z,33.96
2023-05-04T11:37:42.777Z,34.00
2023-05-04T11:38:42.921Z,34.00
2023-05-04T11:39:42.909Z,34.13
2023-05-04T11:40:42.993Z,33.95
2023-05-04T11:41:43.029Z,34.24
2023-05-04T11:42:43.123Z,34.42
2023-05-04T11:43:43.188Z,34.47
2023-05-04T11:44:43.199Z,34.49
2023-05-04T11:45:43.255Z,34.61
2023-05-04T11:46:44.382Z,34.59
2023-05-04T11:47:44.438Z,34.34
2023-05-04T11:48:45.300Z,33.97
2023-05-04T11:49:43.416Z,34.36
2023-05-04T11:50:43.398Z,34.89
2023-05-04T11:51:43.410Z,36.50
2023-05-04T11:52:43.389Z,36.67
2023-05-04T11:53:43.371Z,36.48
2023-05-04T11:54:43.360Z,36.20
2023-05-04T11:55:43.357Z,34.91
2023-05-04T11:56:43.398Z,35.24
2023-05-04T11:57:43.995Z,35.12
2023-05-04T11:58:43.318Z,36.20
2023-05-04T11:59:43.313Z,35.77
2023-05-04T12:00:43.327Z,35.80
2023-05-04T12:01:43.305Z,35.37
2023-05-04T12:02:43.320Z,36.11
2023-05-04T12:03:53.621Z,35.09
2023-05-04T12:04:43.282Z,35.74
2023-05-04T12:05:43.314Z,35.37
2023-05-04T12:06:43.405Z,35.43
2023-05-04T12:07:43.253Z,35.42
2023-05-04T12:08:43.404Z,35.42
2023-05-04T12:09:43.445Z,35.43
2023-05-04T12:10:43.399Z,35.38
2023-05-04T12:11:43.205Z,35.47
2023-05-04T12:12:43.273Z,35.56
2023-05-04T12:13:43.159Z,35.55
2023-05-04T12:14:43.404Z,34.73
2023-05-04T12:15:43.202Z,34.21
2023-05-04T12:16:43.378Z,34.46
2023-05-04T12:17:43.319Z,34.63
2023-05-04T12:18:43.311Z,34.71
2023-05-04T12:19:43.425Z,34.69
2023-05-04T12:20:43.395Z,34.69
2023-05-04T12:21:43.424Z,34.68
2023-05-04T12:22:43.463Z,34.72
2023-05-04T12:23:43.903Z,34.74
2023-05-04T12:24:43.622Z,34.79
2023-05-04T12:25:54.769Z,34.82
2023-05-04T12:26:43.547Z,34.82
2023-05-04T12:27:43.512Z,34.82
2023-05-04T12:28:43.508Z,34.82
2023-05-04T12:29:43.908Z,34.77
2023-05-04T12:30:43.441Z,34.74
2023-05-04T12:31:43.531Z,34.76
2023-05-04T12:32:43.423Z,34.80
2023-05-04T12:33:43.394Z,34.64
2023-05-04T12:34:43.417Z,34.73
2023-05-04T12:35:43.355Z,34.66
2023-05-04T12:36:43.343Z,34.57
2023-05-04T12:37:43.337Z,34.53
2023-05-04T12:38:43.311Z,34.49
2023-05-04T12:39:43.320Z,34.44
2023-05-04T12:40:43.273Z,34.41
2023-05-04T12:41:43.252Z,34.37
2023-05-04T12:42:43.226Z,34.30
2023-05-04T12:43:43.220Z,34.28
2023-05-04T12:44:43.435Z,34.15
2023-05-04T12:45:43.210Z,34.21
2023-05-04T12:46:43.148Z,34.19
2023-05-04T12:47:43.185Z,34.10
2023-05-04T12:48:43.182Z,34.17
2023-05-04T12:49:43.406Z,33.93
2023-05-04T12:50:43.086Z,34.02
2023-05-04T12:51:43.064Z,33.91
2023-05-04T12:52:43.434Z,33.84
2023-05-04T12:53:43.028Z,33.56
2023-05-04T12:54:43.027Z,33.65
2023-05-04T12:55:43.022Z,33.78